createdAt,value
2023-12-11T00:00:49.302Z,100.00
2023-12-11T00:01:51.194Z,100.00
2023-12-11T00:02:53.007Z,100.00
2023-12-11T00:03:54.677Z,100.00
2023-12-11T00:04:56.786Z,100.00
2023-12-11T00:05:58.453Z,100.00
2023-12-11T00:07:00.077Z,100.00
2023-12-11T00:08:01.794Z,100.00
2023-12-11T00:09:03.624Z,100.00
2023-12-11T00:10:05.837Z,100.00
2023-12-11T00:11:10.236Z,100.00
2023-12-11T00:12:11.916Z,100.00
2023-12-11T00:13:13.943Z,100.00
2023-12-11T00:14:15.658Z,100.00
2023-12-11T00:15:17.423Z,100.00
2023-12-11T00:16:19.300Z,100.00
2023-12-11T00:17:20.932Z,100.00
2023-12-11T00:18:22.774Z,100.00
2023-12-11T00:19:24.584Z,100.00
2023-12-11T00:20:26.362Z,100.00
2023-12-11T00:21:28.218Z,100.00
2023-12-11T00:22:29.934Z,100.00
2023-12-11T00:23:31.650Z,100.00
2023-12-11T00:24:33.510Z,100.00
2023-12-11T00:25:36.928Z,100.00
2023-12-11T00:26:38.676Z,100.00
2023-12-11T00:27:40.907Z,100.00
2023-12-11T00:28:42.713Z,100.00
2023-12-11T00:29:44.417Z,100.00
2023-12-11T00:30:46.122Z,100.00
2023-12-11T00:31:47.830Z,100.00
2023-12-11T00:32:49.563Z,100.00
2023-12-11T00:33:51.448Z,100.00
2023-12-11T00:34:53.372Z,100.00
2023-12-11T00:35:55.135Z,100.00
2023-12-11T00:36:56.870Z,100.00
2023-12-11T00:37:58.719Z,100.00
2023-12-11T00:39:00.977Z,100.00
2023-12-11T00:40:02.715Z,100.00
2023-12-11T00:41:04.616Z,100.00
2023-12-11T00:42:06.327Z,100.00
2023-12-11T00:43:08.092Z,100.00
2023-12-11T00:44:09.835Z,100.00
2023-12-11T00:45:14.775Z,100.00
2023-12-11T00:46:20.414Z,100.00
2023-12-11T00:47:22.045Z,100.00
2023-12-11T00:48:23.847Z,100.00
2023-12-11T00:49:25.645Z,100.00
2023-12-11T00:50:27.400Z,100.00
2023-12-11T00:51:29.115Z,100.00
2023-12-11T00:52:30.787Z,100.00
2023-12-11T00:53:32.434Z,100.00
2023-12-11T00:54:34.103Z,100.00
2023-12-11T00:55:35.859Z,100.00
2023-12-11T00:56:38.199Z,100.00
2023-12-11T00:57:39.885Z,100.00
2023-12-11T00:58:41.569Z,100.00
2023-12-11T00:59:43.511Z,100.00
2023-12-11T01:00:45.291Z,100.00
2023-12-11T01:01:47.027Z,100.00
2023-12-11T01:02:48.910Z,100.00
2023-12-11T01:03:50.688Z,100.00
2023-12-11T01:04:52.486Z,100.00
2023-12-11T01:05:54.224Z,100.00
2023-12-11T01:06:55.959Z,100.00
2023-12-11T01:07:57.832Z,100.00
2023-12-11T01:08:59.593Z,100.00
2023-12-11T01:10:01.316Z,100.00
2023-12-11T01:11:03.027Z,100.00
2023-12-11T01:12:05.295Z,100.00
2023-12-11T01:13:07.556Z,100.00
2023-12-11T01:14:09.190Z,100.00
2023-12-11T01:15:11.084Z,100.00
2023-12-11T01:16:12.797Z,100.00
2023-12-11T01:17:37.079Z,100.00
2023-12-11T01:18:36.345Z,100.00
2023-12-11T01:19:38.190Z,100.00
2023-12-11T01:20:40.774Z,100.00
2023-12-11T01:21:42.500Z,100.00
2023-12-11T01:22:44.268Z,100.00
2023-12-11T01:23:45.938Z,100.00
2023-12-11T01:24:47.670Z,100.00
2023-12-11T01:25:49.335Z,100.00
2023-12-11T01:26:50.966Z,100.00
2023-12-11T01:27:52.646Z,100.00
2023-12-11T01:28:54.357Z,100.00
2023-12-11T01:29:56.011Z,100.00
2023-12-11T01:30:57.676Z,100.00
2023-12-11T01:31:59.340Z,100.00
2023-12-11T01:33:01.086Z,100.00
2023-12-11T01:34:03.093Z,100.00
2023-12-11T01:35:05.101Z,100.00
2023-12-11T01:36:07.118Z,100.00
2023-12-11T01:37:08.904Z,100.00
2023-12-11T01:38:10.949Z,100.00
2023-12-11T01:39:12.652Z,100.00
2023-12-11T01:40:14.604Z,100.00
2023-12-11T01:41:16.348Z,100.00
2023-12-11T01:42:18.282Z,100.00
2023-12-11T01:43:21.541Z,100.00
2023-12-11T01:44:23.322Z,100.00
2023-12-11T01:45:24.987Z,100.00
2023-12-11T01:46:27.053Z,100.00
2023-12-11T01:47:29.133Z,100.00
2023-12-11T01:48:32.225Z,100.00
2023-12-11T01:49:35.915Z,100.00
2023-12-11T01:50:39.657Z,100.00
2023-12-11T01:51:42.988Z,100.00
2023-12-11T01:52:44.771Z,100.00
2023-12-11T01:53:49.379Z,100.00
2023-12-11T01:54:51.112Z,100.00
2023-12-11T01:55:52.988Z,100.00
2023-12-11T01:56:54.870Z,100.00
2023-12-11T01:57:57.693Z,100.00
2023-12-11T01:58:59.430Z,100.00
2023-12-11T02:00:01.548Z,100.00
2023-12-11T02:01:03.417Z,100.00
2023-12-11T02:02:05.194Z,100.00
2023-12-11T02:03:06.825Z,100.00
2023-12-11T02:04:10.085Z,100.00
2023-12-11T02:05:12.629Z,100.00
2023-12-11T02:06:14.412Z,100.00
2023-12-11T02:07:17.488Z,100.00
2023-12-11T02:08:19.152Z,100.00
2023-12-11T02:09:20.774Z,100.00
2023-12-11T02:10:22.500Z,100.00
2023-12-11T02:11:25.495Z,100.00
2023-12-11T02:12:27.131Z,100.00
2023-12-11T02:13:28.824Z,100.00
2023-12-11T02:14:30.590Z,100.00
2023-12-11T02:15:39.149Z,100.00
2023-12-11T02:16:40.865Z,100.00
2023-12-11T02:17:43.563Z,100.00
2023-12-11T02:18:45.773Z,100.00
2023-12-11T02:19:47.684Z,100.00
2023-12-11T02:20:49.440Z,100.00
2023-12-11T02:21:51.117Z,100.00
2023-12-11T02:22:53.048Z,100.00
2023-12-11T02:24:05.839Z,100.00
2023-12-11T02:25:08.219Z,100.00
2023-12-11T02:26:15.440Z,100.00
2023-12-11T02:27:17.489Z,100.00
2023-12-11T02:28:19.144Z,100.00
2023-12-11T02:29:21.342Z,100.00
2023-12-11T02:30:23.003Z,100.00
2023-12-11T02:31:24.663Z,100.00
2023-12-11T02:32:26.443Z,100.00
2023-12-11T02:33:28.130Z,100.00
2023-12-11T02:34:29.987Z,100.00
2023-12-11T02:35:32.748Z,100.00
2023-12-11T02:36:34.393Z,100.00
2023-12-11T02:37:36.025Z,100.00
2023-12-11T02:38:37.769Z,100.00
2023-12-11T02:39:39.444Z,100.00
2023-12-11T02:40:41.112Z,100.00
2023-12-11T02:41:42.782Z,100.00
2023-12-11T02:42:50.638Z,100.00
2023-12-11T02:43:52.290Z,100.00
2023-12-11T02:44:53.908Z,100.00
2023-12-11T02:45:55.667Z,100.00
2023-12-11T02:46:57.371Z,100.00
2023-12-11T02:48:04.093Z,100.00
2023-12-11T02:49:06.578Z,100.00
2023-12-11T02:50:08.616Z,100.00
2023-12-11T02:51:10.413Z,100.00
2023-12-11T02:52:12.112Z,100.00
2023-12-11T02:53:13.805Z,100.00
2023-12-11T02:54:15.457Z,100.00
2023-12-11T02:55:17.260Z,100.00
2023-12-11T02:56:19.006Z,100.00
2023-12-11T02:57:20.657Z,100.00
2023-12-11T02:58:22.385Z,100.00
2023-12-11T02:59:24.013Z,100.00
2023-12-11T03:00:26.449Z,100.00
2023-12-11T03:01:28.235Z,100.00
2023-12-11T03:02:29.895Z,100.00
2023-12-11T03:03:31.575Z,100.00
2023-12-11T03:04:33.353Z,100.00
2023-12-11T03:05:35.252Z,100.00
2023-12-11T03:06:37.051Z,100.00
2023-12-11T03:07:38.676Z,100.00
2023-12-11T03:08:40.776Z,100.00
2023-12-11T03:09:42.441Z,100.00
2023-12-11T03:10:46.084Z,100.00
2023-12-11T03:11:49.035Z,100.00
2023-12-11T03:12:50.740Z,100.00
2023-12-11T03:13:52.432Z,100.00
2023-12-11T03:14:54.039Z,100.00
2023-12-11T03:15:55.775Z,100.00
2023-12-11T03:16:57.531Z,100.00
2023-12-11T03:18:00.205Z,100.00
2023-12-11T03:19:02.030Z,100.00
2023-12-11T03:20:06.573Z,100.00
2023-12-11T03:21:08.566Z,100.00
2023-12-11T03:22:10.254Z,100.00
2023-12-11T03:23:12.071Z,100.00
2023-12-11T03:24:13.670Z,100.00
2023-12-11T03:25:15.496Z,100.00
2023-12-11T03:26:17.212Z,100.00
2023-12-11T03:27:18.988Z,100.00
2023-12-11T03:28:20.705Z,100.00
2023-12-11T03:29:22.357Z,100.00
2023-12-11T03:30:24.100Z,100.00
2023-12-11T03:31:25.714Z,100.00
2023-12-11T03:32:27.400Z,100.00
2023-12-11T03:33:29.008Z,100.00
2023-12-11T03:34:30.882Z,100.00
2023-12-11T03:35:32.550Z,100.00
2023-12-11T03:36:34.248Z,100.00
2023-12-11T03:37:35.894Z,100.00
2023-12-11T03:38:37.517Z,100.00
2023-12-11T03:39:39.349Z,100.00
2023-12-11T03:40:45.134Z,100.00
2023-12-11T03:41:46.916Z,100.00
2023-12-11T03:42:48.723Z,100.00
2023-12-11T03:43:50.393Z,100.00
2023-12-11T03:44:52.167Z,100.00
2023-12-11T03:45:57.237Z,100.00
2023-12-11T03:46:59.435Z,100.00
2023-12-11T03:48:01.211Z,100.00
2023-12-11T03:49:03.122Z,100.00
2023-12-11T03:50:05.249Z,100.00
2023-12-11T03:51:07.067Z,100.00
2023-12-11T03:52:08.706Z,100.00
2023-12-11T03:53:11.565Z,100.00
2023-12-11T03:54:13.668Z,100.00
2023-12-11T03:55:15.521Z,100.00
2023-12-11T03:56:17.207Z,100.00
2023-12-11T03:57:18.931Z,100.00
2023-12-11T03:58:20.690Z,100.00
2023-12-11T03:59:24.176Z,100.00
2023-12-11T04:00:25.886Z,100.00
2023-12-11T04:01:27.712Z,100.00
2023-12-11T04:02:29.576Z,100.00
2023-12-11T04:03:32.745Z,100.00
2023-12-11T04:04:34.690Z,100.00
2023-12-11T04:05:36.448Z,100.00
2023-12-11T04:06:38.253Z,100.00
2023-12-11T04:07:39.933Z,100.00
2023-12-11T04:08:42.191Z,100.00
2023-12-11T04:09:43.971Z,100.00
2023-12-11T04:10:45.673Z,100.00
2023-12-11T04:11:47.350Z,100.00
2023-12-11T04:12:49.107Z,100.00
2023-12-11T04:13:50.911Z,100.00
2023-12-11T04:14:52.585Z,100.00
2023-12-11T04:15:54.441Z,100.00
2023-12-11T04:16:56.132Z,100.00
2023-12-11T04:17:57.827Z,100.00
2023-12-11T04:19:00.825Z,100.00
2023-12-11T04:20:03.284Z,100.00
2023-12-11T04:21:05.830Z,100.00
2023-12-11T04:22:07.504Z,100.00
2023-12-11T04:23:09.210Z,100.00
2023-12-11T04:24:13.307Z,100.00
2023-12-11T04:25:16.596Z,100.00
2023-12-11T04:26:18.293Z,100.00
2023-12-11T04:27:19.979Z,100.00
2023-12-11T04:28:22.768Z,100.00
2023-12-11T04:29:24.441Z,100.00
2023-12-11T04:30:26.076Z,100.00
2023-12-11T04:31:27.770Z,100.00
2023-12-11T04:32:29.550Z,100.00
2023-12-11T04:33:34.188Z,100.00
2023-12-11T04:34:36.162Z,100.00
2023-12-11T04:35:37.800Z,100.00
2023-12-11T04:36:42.675Z,100.00
2023-12-11T04:37:44.441Z,100.00
2023-12-11T04:38:46.170Z,100.00
2023-12-11T04:39:47.979Z,100.00
2023-12-11T04:40:49.664Z,100.00
2023-12-11T04:41:51.303Z,100.00
2023-12-11T04:42:53.025Z,100.00
2023-12-11T04:43:54.702Z,100.00
2023-12-11T04:44:56.409Z,100.00
2023-12-11T04:45:58.098Z,100.00
2023-12-11T04:47:00.411Z,100.00
2023-12-11T04:48:02.371Z,100.00
2023-12-11T04:49:04.399Z,100.00
2023-12-11T04:50:06.758Z,100.00
2023-12-11T04:51:08.519Z,100.00
2023-12-11T04:52:10.268Z,100.00
2023-12-11T04:53:12.069Z,100.00
2023-12-11T04:54:14.047Z,100.00
2023-12-11T04:55:15.818Z,100.00
2023-12-11T04:56:17.603Z,100.00
2023-12-11T04:57:19.334Z,100.00
2023-12-11T04:58:21.614Z,100.00
2023-12-11T04:59:23.275Z,100.00
2023-12-11T05:00:26.172Z,100.00
2023-12-11T05:01:28.403Z,100.00
2023-12-11T05:02:30.647Z,100.00
2023-12-11T05:03:32.507Z,100.00
2023-12-11T05:04:34.327Z,100.00
2023-12-11T05:05:37.287Z,100.00
2023-12-11T05:06:38.906Z,100.00
2023-12-11T05:07:40.723Z,100.00
2023-12-11T05:08:42.343Z,100.00
2023-12-11T05:09:44.047Z,100.00
2023-12-11T05:10:45.780Z,100.00
2023-12-11T05:11:47.484Z,100.00
2023-12-11T05:12:49.246Z,100.00
2023-12-11T05:13:50.938Z,100.00
2023-12-11T05:14:52.639Z,100.00
2023-12-11T05:15:54.386Z,100.00
2023-12-11T05:16:56.131Z,100.00
2023-12-11T05:17:58.065Z,100.00
2023-12-11T05:18:59.831Z,100.00
2023-12-11T05:20:01.631Z,100.00
2023-12-11T05:21:08.260Z,100.00
2023-12-11T05:22:09.996Z,100.00
2023-12-11T05:23:11.666Z,100.00
2023-12-11T05:24:14.057Z,100.00
2023-12-11T05:25:15.858Z,100.00
2023-12-11T05:26:20.950Z,100.00
2023-12-11T05:27:22.685Z,100.00
2023-12-11T05:28:24.336Z,100.00
2023-12-11T05:29:26.073Z,100.00
2023-12-11T05:30:27.667Z,100.00
2023-12-11T05:31:31.021Z,100.00
2023-12-11T05:32:33.649Z,100.00
2023-12-11T05:33:35.577Z,100.00
2023-12-11T05:34:37.785Z,100.00
2023-12-11T05:35:39.551Z,100.00
2023-12-11T05:36:41.541Z,100.00
2023-12-11T05:37:43.201Z,100.00
2023-12-11T05:38:44.834Z,100.00
2023-12-11T05:39:57.232Z,100.00
2023-12-11T05:41:08.251Z,100.00
2023-12-11T05:42:09.963Z,100.00
2023-12-11T05:43:11.656Z,100.00
2023-12-11T05:44:13.280Z,100.00
2023-12-11T05:45:15.357Z,100.00
2023-12-11T05:46:17.047Z,100.00
2023-12-11T05:47:18.728Z,100.00
2023-12-11T05:48:20.502Z,100.00
2023-12-11T05:49:22.301Z,100.00
2023-12-11T05:50:23.996Z,100.00
2023-12-11T05:51:25.969Z,100.00
2023-12-11T05:52:27.751Z,100.00
2023-12-11T05:53:29.348Z,100.00
2023-12-11T05:54:31.024Z,100.00
2023-12-11T05:55:32.682Z,100.00
2023-12-11T05:56:34.480Z,100.00
2023-12-11T05:57:36.326Z,100.00
2023-12-11T05:58:38.047Z,100.00
2023-12-11T05:59:39.756Z,100.00
2023-12-11T06:00:41.542Z,100.00
2023-12-11T06:01:43.386Z,100.00
2023-12-11T06:02:45.258Z,100.00
2023-12-11T06:03:47.166Z,100.00
2023-12-11T06:04:48.866Z,100.00
2023-12-11T06:05:52.469Z,100.00
2023-12-11T06:06:54.165Z,100.00
2023-12-11T06:07:55.870Z,100.00
2023-12-11T06:08:57.577Z,100.00
2023-12-11T06:09:59.286Z,100.00
2023-12-11T06:11:00.996Z,100.00
2023-12-11T06:12:02.749Z,100.00
2023-12-11T06:13:04.457Z,100.00
2023-12-11T06:14:07.361Z,100.00
2023-12-11T06:15:09.441Z,100.00
2023-12-11T06:16:12.155Z,100.00
2023-12-11T06:17:13.876Z,100.00
2023-12-11T06:18:15.921Z,100.00
2023-12-11T06:19:17.744Z,100.00
2023-12-11T06:20:19.444Z,100.00
2023-12-11T06:21:22.113Z,100.00
2023-12-11T06:22:23.806Z,100.00
2023-12-11T06:23:25.959Z,100.00
2023-12-11T06:24:27.659Z,100.00
2023-12-11T06:25:29.353Z,100.00
2023-12-11T06:26:32.647Z,100.00
2023-12-11T06:27:34.462Z,100.00
2023-12-11T06:28:36.140Z,100.00
2023-12-11T06:29:39.468Z,100.00
2023-12-11T06:30:41.223Z,100.00
2023-12-11T06:31:43.033Z,100.00
2023-12-11T06:32:44.764Z,100.00
2023-12-11T06:33:46.550Z,100.00
2023-12-11T06:34:48.509Z,100.00
2023-12-11T06:35:50.335Z,100.00
2023-12-11T06:36:52.055Z,100.00
2023-12-11T06:37:54.036Z,100.00
2023-12-11T06:38:56.016Z,100.00
2023-12-11T06:39:57.806Z,100.00
2023-12-11T06:40:59.474Z,100.00
2023-12-11T06:42:01.124Z,100.00
2023-12-11T06:43:02.792Z,100.00
2023-12-11T06:44:04.719Z,100.00
2023-12-11T06:45:09.828Z,100.00
2023-12-11T06:46:13.082Z,100.00
2023-12-11T06:47:14.936Z,100.00
2023-12-11T06:48:16.676Z,100.00
2023-12-11T06:49:18.532Z,100.00
2023-12-11T06:50:21.129Z,100.00
2023-12-11T06:51:24.028Z,100.00
2023-12-11T06:52:26.560Z,100.00
2023-12-11T06:53:28.239Z,100.00
2023-12-11T06:54:29.934Z,100.00
2023-12-11T06:55:31.644Z,100.00
2023-12-11T06:56:33.396Z,100.00
2023-12-11T06:57:35.045Z,100.00
2023-12-11T06:58:36.777Z,100.00
2023-12-11T06:59:38.785Z,100.00
2023-12-11T07:00:40.551Z,100.00
2023-12-11T07:01:43.777Z,100.00
2023-12-11T07:02:46.110Z,100.00
2023-12-11T07:03:49.666Z,100.00
2023-12-11T07:04:51.668Z,100.00
2023-12-11T07:05:53.789Z,100.00
2023-12-11T07:06:55.664Z,100.00
2023-12-11T07:07:57.498Z,100.00
2023-12-11T07:09:00.691Z,100.00
2023-12-11T07:10:05.847Z,100.00
2023-12-11T07:11:07.628Z,100.00
2023-12-11T07:12:09.589Z,100.00
2023-12-11T07:13:11.657Z,100.00
2023-12-11T07:14:13.553Z,100.00
2023-12-11T07:15:15.363Z,100.00
2023-12-11T07:16:17.198Z,100.00
2023-12-11T07:17:18.962Z,100.00
2023-12-11T07:18:21.914Z,100.00
2023-12-11T07:19:23.792Z,99.26
2023-12-11T07:20:25.577Z,98.48
2023-12-11T07:21:27.833Z,97.62
2023-12-11T07:22:31.570Z,97.05
2023-12-11T07:23:33.219Z,96.29
2023-12-11T07:24:36.573Z,95.45
2023-12-11T07:25:38.895Z,94.77
2023-12-11T07:26:40.672Z,94.98
2023-12-11T07:27:44.231Z,94.13
2023-12-11T07:28:45.941Z,93.18
2023-12-11T07:29:47.563Z,92.89
2023-12-11T07:30:49.262Z,94.12
2023-12-11T07:31:50.999Z,94.64
2023-12-11T07:32:52.846Z,95.51
2023-12-11T07:33:57.049Z,96.67
2023-12-11T07:34:59.219Z,97.06
2023-12-11T07:36:00.959Z,94.88
2023-12-11T07:37:02.716Z,93.94
2023-12-11T07:38:04.709Z,93.93
2023-12-11T07:39:07.252Z,93.43
2023-12-11T07:40:09.715Z,92.16
2023-12-11T07:41:12.678Z,91.38
2023-12-11T07:42:15.322Z,91.09
2023-12-11T07:43:16.936Z,90.91
2023-12-11T07:44:19.387Z,90.26
2023-12-11T07:45:22.179Z,88.38
2023-12-11T07:46:24.016Z,88.51
2023-12-11T07:47:25.833Z,87.95
2023-12-11T07:48:27.801Z,85.91
2023-12-11T07:49:29.647Z,86.08
2023-12-11T07:50:31.456Z,86.28
2023-12-11T07:51:33.117Z,86.22
2023-12-11T07:52:34.801Z,87.36
2023-12-11T07:53:36.541Z,86.67
2023-12-11T07:54:39.996Z,86.38
2023-12-11T07:55:41.720Z,87.46
2023-12-11T07:56:44.968Z,88.05
2023-12-11T07:57:46.826Z,87.36
2023-12-11T07:58:48.681Z,87.20
2023-12-11T07:59:50.325Z,87.13
2023-12-11T08:00:52.596Z,86.25
2023-12-11T08:01:54.486Z,86.57
2023-12-11T08:02:57.489Z,85.11
2023-12-11T08:03:59.658Z,83.95
2023-12-11T08:05:01.468Z,83.65
2023-12-11T08:06:04.098Z,83.03
2023-12-11T08:07:05.933Z,83.73
2023-12-11T08:08:07.592Z,82.82
2023-12-11T08:09:12.893Z,81.43
2023-12-11T08:10:14.678Z,80.36
2023-12-11T08:11:18.702Z,80.43
2023-12-11T08:12:20.500Z,80.92
2023-12-11T08:13:22.176Z,80.51
2023-12-11T08:14:23.859Z,80.58
2023-12-11T08:15:25.591Z,81.02
2023-12-11T08:16:27.826Z,81.25
2023-12-11T08:17:29.742Z,80.00
2023-12-11T08:18:33.404Z,80.15
2023-12-11T08:19:35.244Z,77.70
2023-12-11T08:20:37.014Z,77.46
2023-12-11T08:21:38.672Z,77.11
2023-12-11T08:22:40.375Z,77.30
2023-12-11T08:23:45.119Z,79.37
2023-12-11T08:24:47.029Z,78.36
2023-12-11T08:25:48.720Z,77.67
2023-12-11T08:26:50.405Z,77.57
2023-12-11T08:27:52.101Z,78.14
2023-12-11T08:28:53.747Z,78.24
2023-12-11T08:29:55.414Z,77.88
2023-12-11T08:30:57.788Z,77.14
2023-12-11T08:32:00.951Z,76.84
2023-12-11T08:33:02.813Z,77.85
2023-12-11T08:34:04.516Z,76.77
2023-12-11T08:35:06.969Z,75.77
2023-12-11T08:36:09.183Z,75.96
2023-12-11T08:37:12.460Z,74.82
2023-12-11T08:38:17.363Z,74.10
2023-12-11T08:39:19.037Z,73.51
2023-12-11T08:40:21.731Z,74.90
2023-12-11T08:41:23.481Z,74.73
2023-12-11T08:42:25.096Z,74.07
2023-12-11T08:43:27.617Z,76.51
2023-12-11T08:44:29.366Z,75.12
2023-12-11T08:45:31.035Z,74.67
2023-12-11T08:46:32.964Z,77.37
2023-12-11T08:47:38.126Z,77.36
2023-12-11T08:48:40.999Z,76.61
2023-12-11T08:49:44.114Z,76.42
2023-12-11T08:50:46.199Z,76.05
2023-12-11T08:51:47.888Z,75.16
2023-12-11T08:52:49.533Z,75.20
2023-12-11T08:53:51.178Z,74.53
2023-12-11T08:54:52.888Z,74.68
2023-12-11T08:55:55.522Z,74.23
2023-12-11T08:56:57.143Z,74.01
2023-12-11T08:57:59.029Z,72.83
2023-12-11T08:59:01.630Z,71.71
2023-12-11T09:00:06.775Z,71.92
2023-12-11T09:01:08.695Z,72.62
2023-12-11T09:02:10.435Z,71.18
2023-12-11T09:03:12.690Z,70.95
2023-12-11T09:04:14.434Z,71.46
2023-12-11T09:05:16.667Z,72.37
2023-12-11T09:06:18.352Z,72.23
2023-12-11T09:07:20.319Z,72.84
2023-12-11T09:08:22.772Z,73.06
2023-12-11T09:09:24.526Z,73.63
2023-12-11T09:10:26.385Z,75.08
2023-12-11T09:11:28.163Z,74.18
2023-12-11T09:12:33.439Z,71.89
2023-12-11T09:13:37.955Z,72.38
2023-12-11T09:14:39.850Z,73.53
2023-12-11T09:15:41.523Z,73.69
2023-12-11T09:16:43.238Z,73.18
2023-12-11T09:17:45.022Z,75.11
2023-12-11T09:18:47.006Z,77.28
2023-12-11T09:19:54.863Z,77.83
2023-12-11T09:20:57.731Z,76.98
2023-12-11T09:21:59.530Z,75.20
2023-12-11T09:23:01.190Z,77.06
2023-12-11T09:24:03.012Z,75.64
2023-12-11T09:25:05.271Z,76.07
2023-12-11T09:26:06.940Z,76.88
2023-12-11T09:27:08.718Z,75.76
2023-12-11T09:28:10.709Z,77.16
2023-12-11T09:29:12.551Z,76.92
2023-12-11T09:30:14.417Z,74.54
2023-12-11T09:31:20.007Z,73.56
2023-12-11T09:32:21.735Z,72.08
2023-12-11T09:33:23.693Z,72.51
2023-12-11T09:34:25.821Z,71.70
2023-12-11T09:35:29.082Z,71.42
2023-12-11T09:36:30.916Z,70.35
2023-12-11T09:37:32.785Z,70.10
2023-12-11T09:38:34.546Z,69.10
2023-12-11T09:39:36.327Z,69.08
2023-12-11T09:40:37.960Z,69.89
2023-12-11T09:41:40.620Z,70.65
2023-12-11T09:42:44.397Z,70.90
2023-12-11T09:43:47.471Z,70.50
2023-12-11T09:44:49.361Z,70.83
2023-12-11T09:45:52.847Z,70.56
2023-12-11T09:47:02.293Z,70.21
2023-12-11T09:48:11.494Z,70.17
2023-12-11T09:49:17.844Z,70.91
2023-12-11T09:50:20.700Z,70.00
2023-12-11T09:51:22.797Z,70.68
2023-12-11T09:52:24.882Z,69.43
2023-12-11T09:53:27.440Z,68.26
2023-12-11T09:54:29.208Z,68.38
2023-12-11T09:55:37.417Z,66.61
2023-12-11T09:56:40.366Z,66.59
2023-12-11T09:57:42.979Z,67.33
2023-12-11T09:58:46.036Z,66.98
2023-12-11T09:59:49.211Z,67.26
2023-12-11T10:00:51.093Z,66.09
2023-12-11T10:01:53.409Z,65.57
2023-12-11T10:02:56.045Z,66.08
2023-12-11T10:03:57.826Z,66.48
2023-12-11T10:05:08.141Z,65.51
2023-12-11T10:06:09.982Z,65.50
2023-12-11T10:07:12.518Z,64.61
2023-12-11T10:08:17.339Z,63.78
2023-12-11T10:09:36.037Z,65.99
2023-12-11T10:10:39.798Z,66.05
2023-12-11T10:11:41.526Z,65.43
2023-12-11T10:12:44.086Z,66.61
2023-12-11T10:13:47.104Z,66.38
2023-12-11T10:15:03.773Z,66.03
2023-12-11T10:16:06.898Z,65.54
2023-12-11T10:17:18.937Z,65.84
2023-12-11T10:18:20.728Z,65.31
2023-12-11T10:19:35.116Z,65.33
2023-12-11T10:20:41.848Z,66.69
2023-12-11T10:21:43.785Z,64.56
2023-12-11T10:22:45.775Z,63.96
2023-12-11T10:24:17.161Z,64.25
2023-12-11T10:25:29.056Z,63.10
2023-12-11T10:26:37.929Z,62.60
2023-12-11T10:27:39.734Z,62.78
2023-12-11T10:28:42.043Z,63.09
2023-12-11T10:29:43.771Z,63.07
2023-12-11T10:30:48.456Z,62.62
2023-12-11T10:31:51.395Z,62.75
2023-12-11T10:33:02.000Z,62.92
2023-12-11T10:34:04.908Z,62.89
2023-12-11T10:35:07.851Z,62.02
2023-12-11T10:36:14.850Z,61.97
2023-12-11T10:37:16.711Z,61.99
2023-12-11T10:39:08.681Z,61.59
2023-12-11T10:41:06.487Z,61.60
2023-12-11T10:42:18.343Z,61.60
2023-12-11T10:43:20.753Z,60.97
2023-12-11T10:44:42.759Z,60.26
2023-12-11T10:45:51.640Z,61.18
2023-12-11T10:46:58.494Z,62.50
2023-12-11T10:48:01.196Z,61.00
2023-12-11T10:49:03.128Z,60.54
2023-12-11T10:50:08.895Z,62.14
2023-12-11T10:51:11.539Z,62.79
2023-12-11T10:52:13.675Z,63.58
2023-12-11T10:53:16.759Z,63.39
2023-12-11T10:54:21.190Z,63.04
2023-12-11T10:55:23.003Z,63.47
2023-12-11T10:56:27.458Z,63.57
2023-12-11T10:57:32.309Z,63.49
2023-12-11T10:58:34.145Z,63.45
2023-12-11T10:59:36.393Z,62.44
2023-12-11T11:00:39.800Z,63.31
2023-12-11T11:01:46.039Z,62.68
2023-12-11T11:02:52.381Z,61.38
2023-12-11T11:03:54.250Z,60.82
2023-12-11T11:04:57.707Z,61.18
2023-12-11T11:06:00.762Z,59.72
2023-12-11T11:07:18.391Z,59.58
2023-12-11T11:08:53.435Z,59.94
2023-12-11T11:10:10.541Z,59.72
2023-12-11T11:11:25.219Z,60.10
2023-12-11T11:12:33.315Z,61.23
2023-12-11T11:13:43.560Z,61.65
2023-12-11T11:14:48.571Z,61.61
2023-12-11T11:15:54.598Z,62.05
2023-12-11T11:16:58.139Z,61.41
2023-12-11T11:18:06.826Z,60.80
2023-12-11T11:19:10.140Z,60.54
2023-12-11T11:20:19.158Z,60.18
2023-12-11T11:21:22.959Z,61.09
2023-12-11T11:22:31.695Z,61.10
2023-12-11T11:23:48.905Z,59.31
2023-12-11T11:24:50.741Z,69.74
2023-12-11T11:25:53.554Z,73.80
2023-12-11T11:26:55.838Z,70.25
2023-12-11T11:27:58.377Z,63.57
2023-12-11T11:29:00.458Z,62.08
2023-12-11T11:30:02.172Z,61.35
2023-12-11T11:31:07.412Z,60.02
2023-12-11T11:32:13.747Z,58.94
2023-12-11T11:33:16.016Z,58.81
2023-12-11T11:34:43.057Z,58.36
2023-12-11T11:35:44.787Z,58.53
2023-12-11T11:36:49.560Z,58.13
2023-12-11T11:37:51.589Z,57.94
2023-12-11T11:39:03.657Z,58.43
2023-12-11T11:40:07.010Z,58.56
2023-12-11T11:41:31.219Z,58.91
2023-12-11T11:42:34.908Z,58.70
2023-12-11T11:43:36.531Z,58.33
2023-12-11T11:44:38.364Z,58.65
2023-12-11T11:45:40.166Z,59.96
2023-12-11T11:46:57.296Z,59.73
2023-12-11T11:47:59.086Z,58.84
2023-12-11T11:49:00.783Z,59.68
2023-12-11T11:50:19.671Z,59.03
2023-12-11T11:51:22.844Z,58.69
2023-12-11T11:52:29.157Z,58.11
2023-12-11T11:53:30.972Z,58.51
2023-12-11T11:54:34.088Z,58.73
2023-12-11T11:55:39.794Z,59.28
2023-12-11T11:56:47.427Z,59.90
2023-12-11T11:57:49.083Z,58.63
2023-12-11T11:58:50.775Z,58.91
2023-12-11T11:59:54.474Z,58.95
2023-12-11T12:01:06.634Z,58.78
2023-12-11T12:02:08.446Z,58.55
2023-12-11T12:03:10.200Z,58.20
2023-12-11T12:04:12.986Z,58.33
2023-12-11T12:05:14.735Z,57.77
2023-12-11T12:06:18.214Z,58.34
2023-12-11T12:07:20.601Z,57.72
2023-12-11T12:08:22.324Z,57.19
2023-12-11T12:09:24.699Z,58.61
2023-12-11T12:10:27.011Z,58.76
2023-12-11T12:11:31.062Z,58.48
2023-12-11T12:12:33.320Z,58.79
2023-12-11T12:13:35.683Z,58.25
2023-12-11T12:14:37.499Z,58.68
2023-12-11T12:15:46.074Z,58.40
2023-12-11T12:16:48.008Z,58.17
2023-12-11T12:17:50.069Z,57.70
2023-12-11T12:18:51.893Z,57.40
2023-12-11T12:19:53.726Z,57.89
2023-12-11T12:21:05.876Z,57.11
2023-12-11T12:22:08.632Z,56.95
2023-12-11T12:23:11.378Z,56.11
2023-12-11T12:24:12.943Z,56.08
2023-12-11T12:25:18.381Z,56.02
2023-12-11T12:26:20.162Z,55.82
2023-12-11T12:27:26.155Z,57.02
2023-12-11T12:28:28.752Z,56.54
2023-12-11T12:29:33.155Z,55.65
2023-12-11T12:30:36.011Z,56.41
2023-12-11T12:31:39.427Z,55.78
2023-12-11T12:32:41.226Z,56.24
2023-12-11T12:33:43.349Z,56.57
2023-12-11T12:34:47.492Z,56.30
2023-12-11T12:35:50.116Z,54.92
2023-12-11T12:36:55.405Z,55.25
2023-12-11T12:37:57.901Z,55.22
2023-12-11T12:38:59.754Z,55.38
2023-12-11T12:40:01.615Z,55.82
2023-12-11T12:41:03.775Z,54.29
2023-12-11T12:42:05.708Z,55.45
2023-12-11T12:43:14.645Z,55.45
2023-12-11T12:44:18.798Z,56.42
2023-12-11T12:45:35.462Z,55.44
2023-12-11T12:46:43.285Z,55.58
2023-12-11T12:47:48.923Z,55.36
2023-12-11T12:48:50.797Z,55.67
2023-12-11T12:49:52.581Z,55.21
2023-12-11T12:51:05.799Z,55.31
2023-12-11T12:52:07.488Z,54.45
2023-12-11T12:53:14.913Z,55.78
2023-12-11T12:54:17.524Z,56.06
2023-12-11T12:55:30.231Z,55.92
2023-12-11T12:56:33.020Z,57.04
2023-12-11T12:57:37.710Z,57.74
2023-12-11T12:58:39.943Z,57.94
2023-12-11T12:59:42.016Z,57.08
2023-12-11T13:00:44.122Z,56.94
2023-12-11T13:01:46.012Z,56.75
2023-12-11T13:02:49.880Z,55.74
2023-12-11T13:03:51.596Z,55.97
2023-12-11T13:04:56.348Z,56.42
2023-12-11T13:06:00.692Z,56.01
2023-12-11T13:07:12.250Z,56.13
2023-12-11T13:08:17.656Z,56.15
2023-12-11T13:09:30.432Z,56.10
2023-12-11T13:10:32.027Z,56.88
2023-12-11T13:11:44.027Z,56.16
2023-12-11T13:12:45.698Z,56.67
2023-12-11T13:13:57.673Z,56.80
2023-12-11T13:15:00.833Z,57.01
2023-12-11T13:16:04.294Z,56.32
2023-12-11T13:17:06.137Z,56.36
2023-12-11T13:18:07.927Z,56.98
2023-12-11T13:19:10.529Z,57.65
2023-12-11T13:20:12.682Z,57.70